sensor_id;sensor_type;location;lat;lon;timestamp;temperature;humidity
14000;DHT22;7075;53.574;10.054;2023-01-16T00:01:56;5.70;99.90
14000;DHT22;7075;53.574;10.054;2023-01-16T00:04:22;5.70;99.90
14000;DHT22;7075;53.574;10.054;2023-01-16T00:06:48;5.70;99.90
14000;DHT22;7075;53.574;10.054;2023-01-16T00:09:14;5.80;99.90
14000;DHT22;7075;53.574;10.054;2023-01-16T00:11:39;5.80;99.90
14000;DHT22;7075;53.574;10.054;2023-01-16T00:14:05;5.80;99.90
14000;DHT22;7075;53.574;10.054;2023-01-16T00:16:31;5.70;99.90
14000;DHT22;7075;53.574;10.054;2023-01-16T00:18:57;5.70;99.90
14000;DHT22;7075;53.574;10.054;2023-01-16T00:21:24;5.80;99.90
14000;DHT22;7075;53.574;10.054;2023-01-16T00:23:56;5.80;99.90
14000;DHT22;7075;53.574;10.054;2023-01-16T00:26:24;5.80;99.90
14000;DHT22;7075;53.574;10.054;2023-01-16T00:28:50;5.80;99.90
14000;DHT22;7075;53.574;10.054;2023-01-16T00:31:16;5.80;99.90
14000;DHT22;7075;53.574;10.054;2023-01-16T00:33:41;5.80;99.90
14000;DHT22;7075;53.574;10.054;2023-01-16T00:36:11;5.80;99.90
14000;DHT22;7075;53.574;10.054;2023-01-16T00:38:37;5.80;99.90
14000;DHT22;7075;53.574;10.054;2023-01-16T00:41:02;5.80;99.90
14000;DHT22;7075;53.574;10.054;2023-01-16T00:43:28;5.80;99.90
14000;DHT22;7075;53.574;10.054;2023-01-16T00:45:54;5.70;99.90
14000;DHT22;7075;53.574;10.054;2023-01-16T00:48:22;5.70;99.90
14000;DHT22;7075;53.574;10.054;2023-01-16T00:50:48;5.80;99.90
14000;DHT22;7075;53.574;10.054;2023-01-16T00:53:14;5.80;99.90
14000;DHT22;7075;53.574;10.054;2023-01-16T00:55:40;5.80;99.90
14000;DHT22;7075;53.574;10.054;2023-01-16T00:58:07;5.80;99.90
14000;DHT22;7075;53.574;10.054;2023-01-16T01:00:34;5.70;99.90
14000;DHT22;7075;53.574;10.054;2023-01-16T01:02:59;5.80;99.90
14000;DHT22;7075;53.574;10.054;2023-01-16T01:05:25;5.80;99.90
14000;DHT22;7075;53.574;10.054;2023-01-16T01:07:51;5.80;99.90
14000;DHT22;7075;53.574;10.054;2023-01-16T01:10:16;5.80;99.90
14000;DHT22;7075;53.574;10.054;2023-01-16T01:12:42;5.80;99.90
14000;DHT22;7075;53.574;10.054;2023-01-16T01:15:08;5.80;99.90
14000;DHT22;7075;53.574;10.054;2023-01-16T01:17:33;5.90;99.90
14000;DHT22;7075;53.574;10.054;2023-01-16T01:19:59;5.90;99.90
14000;DHT22;7075;53.574;10.054;2023-01-16T01:22:24;5.80;99.90
14000;DHT22;7075;53.574;10.054;2023-01-16T01:24:52;5.80;99.90
14000;DHT22;7075;53.574;10.054;2023-01-16T01:27:18;5.80;99.90
14000;DHT22;7075;53.574;10.054;2023-01-16T01:29:44;5.80;99.90
14000;DHT22;7075;53.574;10.054;2023-01-16T01:32:10;5.90;99.90
14000;DHT22;7075;53.574;10.054;2023-01-16T01:34:35;5.80;99.90
14000;DHT22;7075;53.574;10.054;2023-01-16T01:37:06;5.80;99.90
14000;DHT22;7075;53.574;10.054;2023-01-16T01:39:32;5.80;99.90
14000;DHT22;7075;53.574;10.054;2023-01-16T01:41:58;5.90;99.90
14000;DHT22;7075;53.574;10.054;2023-01-16T01:44:54;5.80;99.90
14000;DHT22;7075;53.574;10.054;2023-01-16T01:47:32;5.80;99.90
14000;DHT22;7075;53.574;10.054;2023-01-16T01:50:02;5.90;99.90
14000;DHT22;7075;53.574;10.054;2023-01-16T01:52:29;5.90;99.90
14000;DHT22;7075;53.574;10.054;2023-01-16T01:55:02;5.90;99.90
14000;DHT22;7075;53.574;10.054;2023-01-16T01:57:39;5.90;99.90
14000;DHT22;7075;53.574;10.054;2023-01-16T02:00:33;5.90;99.90
14000;DHT22;7075;53.574;10.054;2023-01-16T02:03:10;5.90;99.90
14000;DHT22;7075;53.574;10.054;2023-01-16T02:05:42;5.80;99.90
14000;DHT22;7075;53.574;10.054;2023-01-16T02:08:17;5.80;99.90
14000;DHT22;7075;53.574;10.054;2023-01-16T02:10:58;5.80;99.90
14000;DHT22;7075;53.574;10.054;2023-01-16T02:13:26;5.80;99.90
14000;DHT22;7075;53.574;10.054;2023-01-16T02:15:51;5.80;99.90
14000;DHT22;7075;53.574;10.054;2023-01-16T02:18:36;5.80;99.90
14000;DHT22;7075;53.574;10.054;2023-01-16T02:30:08;5.80;99.90
14000;DHT22;7075;53.574;10.054;2023-01-16T02:32:53;5.80;99.90
14000;DHT22;7075;53.574;10.054;2023-01-16T02:41:02;5.70;99.90
14000;DHT22;7075;53.574;10.054;2023-01-16T02:43:51;5.70;99.90
14000;DHT22;7075;53.574;10.054;2023-01-16T02:46:32;5.70;99.90
14000;DHT22;7075;53.574;10.054;2023-01-16T02:49:10;5.80;99.90
14000;DHT22;7075;53.574;10.054;2023-01-16T02:51:54;5.70;99.90
14000;DHT22;7075;53.574;10.054;2023-01-16T02:57:17;5.70;99.90
14000;DHT22;7075;53.574;10.054;2023-01-16T02:59:44;5.70;99.90
14000;DHT22;7075;53.574;10.054;2023-01-16T03:02:09;5.70;99.90
14000;DHT22;7075;53.574;10.054;2023-01-16T03:04:44;5.70;99.90
14000;DHT22;7075;53.574;10.054;2023-01-16T03:15:22;5.70;99.90
14000;DHT22;7075;53.574;10.054;2023-01-16T03:20:44;5.80;99.90
14000;DHT22;7075;53.574;10.054;2023-01-16T03:23:19;5.80;99.90
14000;DHT22;7075;53.574;10.054;2023-01-16T03:25:51;5.70;99.90
14000;DHT22;7075;53.574;10.054;2023-01-16T03:28:43;5.70;99.90
14000;DHT22;7075;53.574;10.054;2023-01-16T03:31:31;5.60;99.90
14000;DHT22;7075;53.574;10.054;2023-01-16T03:34:04;5.60;99.90
14000;DHT22;7075;53.574;10.054;2023-01-16T03:36:50;5.60;99.90
14000;DHT22;7075;53.574;10.054;2023-01-16T03:39:21;5.60;99.90
14000;DHT22;7075;53.574;10.054;2023-01-16T03:41:47;5.60;99.90
14000;DHT22;7075;53.574;10.054;2023-01-16T03:44:26;5.60;99.90
14000;DHT22;7075;53.574;10.054;2023-01-16T03:46:56;5.70;99.90
14000;DHT22;7075;53.574;10.054;2023-01-16T03:49:31;5.70;99.90
14000;DHT22;7075;53.574;10.054;2023-01-16T03:52:00;5.80;99.90
14000;DHT22;7075;53.574;10.054;2023-01-16T03:54:38;5.70;99.90
14000;DHT22;7075;53.574;10.054;2023-01-16T03:57:32;5.70;99.90
14000;DHT22;7075;53.574;10.054;2023-01-16T04:00:00;5.60;99.90
14000;DHT22;7075;53.574;10.054;2023-01-16T04:06:03;5.50;99.90
14000;DHT22;7075;53.574;10.054;2023-01-16T04:08:36;5.50;99.90
14000;DHT22;7075;53.574;10.054;2023-01-16T04:11:04;5.50;99.90
14000;DHT22;7075;53.574;10.054;2023-01-16T04:13:36;5.50;99.90
14000;DHT22;7075;53.574;10.054;2023-01-16T04:16:06;5.50;99.90
14000;DHT22;7075;53.574;10.054;2023-01-16T04:18:34;5.50;99.90
14000;DHT22;7075;53.574;10.054;2023-01-16T04:21:03;5.60;99.90
14000;DHT22;7075;53.574;10.054;2023-01-16T04:23:31;5.50;99.90
14000;DHT22;7075;53.574;10.054;2023-01-16T04:25:57;5.50;99.90
14000;DHT22;7075;53.574;10.054;2023-01-16T04:28:22;5.40;99.90
14000;DHT22;7075;53.574;10.054;2023-01-16T04:30:48;5.40;99.90
14000;DHT22;7075;53.574;10.054;2023-01-16T04:33:13;5.40;99.90
14000;DHT22;7075;53.574;10.054;2023-01-16T04:35:39;5.40;99.90
14000;DHT22;7075;53.574;10.054;2023-01-16T04:38:04;5.50;99.90
14000;DHT22;7075;53.574;10.054;2023-01-16T04:40:30;5.50;99.90
14000;DHT22;7075;53.574;10.054;2023-01-16T04:42:55;5.50;99.90
14000;DHT22;7075;53.574;10.054;2023-01-16T04:45:21;5.60;99.90
14000;DHT22;7075;53.574;10.054;2023-01-16T04:47:48;5.60;99.90
14000;DHT22;7075;53.574;10.054;2023-01-16T04:50:14;5.60;99.90
14000;DHT22;7075;53.574;10.054;2023-01-16T04:52:41;5.60;99.90
14000;DHT22;7075;53.574;10.054;2023-01-16T04:55:07;5.70;99.90
14000;DHT22;7075;53.574;10.054;2023-01-16T04:57:32;5.60;99.90
14000;DHT22;7075;53.574;10.054;2023-01-16T04:59:58;5.70;99.90
14000;DHT22;7075;53.574;10.054;2023-01-16T05:02:23;5.60;99.90
14000;DHT22;7075;53.574;10.054;2023-01-16T05:04:49;5.60;99.90
14000;DHT22;7075;53.574;10.054;2023-01-16T05:07:15;5.50;99.90
14000;DHT22;7075;53.574;10.054;2023-01-16T05:09:40;5.50;99.90
14000;DHT22;7075;53.574;10.054;2023-01-16T05:12:06;5.50;99.90
14000;DHT22;7075;53.574;10.054;2023-01-16T05:14:31;5.50;99.90
14000;DHT22;7075;53.574;10.054;2023-01-16T05:16:57;5.50;99.90
14000;DHT22;7075;53.574;10.054;2023-01-16T05:19:22;5.50;99.90
14000;DHT22;7075;53.574;10.054;2023-01-16T05:21:48;5.50;99.90
14000;DHT22;7075;53.574;10.054;2023-01-16T05:24:13;5.50;99.90
14000;DHT22;7075;53.574;10.054;2023-01-16T05:26:39;5.50;99.90
14000;DHT22;7075;53.574;10.054;2023-01-16T05:29:04;5.50;99.90
14000;DHT22;7075;53.574;10.054;2023-01-16T05:31:30;5.50;99.90
14000;DHT22;7075;53.574;10.054;2023-01-16T05:33:56;5.50;99.90
14000;DHT22;7075;53.574;10.054;2023-01-16T05:36:21;5.50;99.90
14000;DHT22;7075;53.574;10.054;2023-01-16T05:38:47;5.50;99.90
14000;DHT22;7075;53.574;10.054;2023-01-16T05:41:12;5.50;99.90
14000;DHT22;7075;53.574;10.054;2023-01-16T05:43:38;5.50;99.90
14000;DHT22;7075;53.574;10.054;2023-01-16T05:46:04;5.50;99.90
14000;DHT22;7075;53.574;10.054;2023-01-16T05:48:30;5.50;99.90
14000;DHT22;7075;53.574;10.054;2023-01-16T05:50:57;5.50;99.90
14000;DHT22;7075;53.574;10.054;2023-01-16T05:53:23;5.40;99.90
14000;DHT22;7075;53.574;10.054;2023-01-16T05:55:48;5.50;99.90
14000;DHT22;7075;53.574;10.054;2023-01-16T05:58:15;5.50;99.90
14000;DHT22;7075;53.574;10.054;2023-01-16T06:00:41;5.40;99.90
14000;DHT22;7075;53.574;10.054;2023-01-16T06:03:08;5.40;99.90
14000;DHT22;7075;53.574;10.054;2023-01-16T06:05:34;5.50;99.90
14000;DHT22;7075;53.574;10.054;2023-01-16T06:07:59;5.50;99.90
14000;DHT22;7075;53.574;10.054;2023-01-16T06:10:26;5.50;99.90
14000;DHT22;7075;53.574;10.054;2023-01-16T06:12:52;5.60;99.90
14000;DHT22;7075;53.574;10.054;2023-01-16T06:15:18;5.60;99.90
14000;DHT22;7075;53.574;10.054;2023-01-16T06:17:43;5.60;99.90
14000;DHT22;7075;53.574;10.054;2023-01-16T06:20:10;5.60;99.90
14000;DHT22;7075;53.574;10.054;2023-01-16T06:22:36;5.50;99.90
14000;DHT22;7075;53.574;10.054;2023-01-16T06:25:01;5.50;99.90
14000;DHT22;7075;53.574;10.054;2023-01-16T06:27:27;5.50;99.90
14000;DHT22;7075;53.574;10.054;2023-01-16T06:29:53;5.50;99.90
14000;DHT22;7075;53.574;10.054;2023-01-16T06:32:18;5.50;99.90
14000;DHT22;7075;53.574;10.054;2023-01-16T06:34:44;5.50;99.90
14000;DHT22;7075;53.574;10.054;2023-01-16T06:37:10;5.60;99.90
14000;DHT22;7075;53.574;10.054;2023-01-16T06:39:36;5.60;99.90
14000;DHT22;7075;53.574;10.054;2023-01-16T06:42:02;5.60;99.90
14000;DHT22;7075;53.574;10.054;2023-01-16T06:44:31;5.50;99.90
14000;DHT22;7075;53.574;10.054;2023-01-16T06:46:58;5.60;99.90
14000;DHT22;7075;53.574;10.054;2023-01-16T06:49:24;5.60;99.90
14000;DHT22;7075;53.574;10.054;2023-01-16T06:51:49;5.60;99.90
14000;DHT22;7075;53.574;10.054;2023-01-16T06:54:15;5.60;99.90
14000;DHT22;7075;53.574;10.054;2023-01-16T06:56:40;5.50;99.90
14000;DHT22;7075;53.574;10.054;2023-01-16T06:59:06;5.50;99.90
14000;DHT22;7075;53.574;10.054;2023-01-16T07:01:31;5.50;99.90
14000;DHT22;7075;53.574;10.054;2023-01-16T07:03:57;5.50;99.90
14000;DHT22;7075;53.574;10.054;2023-01-16T07:06:22;5.50;99.90
14000;DHT22;7075;53.574;10.054;2023-01-16T07:08:48;5.60;99.90
14000;DHT22;7075;53.574;10.054;2023-01-16T07:11:16;5.60;99.90
14000;DHT22;7075;53.574;10.054;2023-01-16T07:13:42;5.60;99.90
14000;DHT22;7075;53.574;10.054;2023-01-16T07:16:10;5.60;99.90
14000;DHT22;7075;53.574;10.054;2023-01-16T07:18:55;5.60;99.90
14000;DHT22;7075;53.574;10.054;2023-01-16T07:21:43;5.70;99.90
14000;DHT22;7075;53.574;10.054;2023-01-16T07:24:32;5.70;99.90
14000;DHT22;7075;53.574;10.054;2023-01-16T07:27:01;5.70;99.90
14000;DHT22;7075;53.574;10.054;2023-01-16T07:29:30;5.60;99.90
14000;DHT22;7075;53.574;10.054;2023-01-16T07:31:58;5.60;99.90
14000;DHT22;7075;53.574;10.054;2023-01-16T07:34:24;5.60;99.90
14000;DHT22;7075;53.574;10.054;2023-01-16T07:36:50;5.60;99.90
14000;DHT22;7075;53.574;10.054;2023-01-16T07:39:16;5.60;99.90
14000;DHT22;7075;53.574;10.054;2023-01-16T07:41:41;5.60;99.90
14000;DHT22;7075;53.574;10.054;2023-01-16T07:44:07;5.60;99.90
14000;DHT22;7075;53.574;10.054;2023-01-16T07:46:32;5.50;99.90
14000;DHT22;7075;53.574;10.054;2023-01-16T07:48:58;5.50;99.90
14000;DHT22;7075;53.574;10.054;2023-01-16T07:51:24;5.50;99.90
14000;DHT22;7075;53.574;10.054;2023-01-16T07:53:50;5.40;99.90
14000;DHT22;7075;53.574;10.054;2023-01-16T07:56:15;5.30;99.90
14000;DHT22;7075;53.574;10.054;2023-01-16T07:58:41;5.30;99.90
14000;DHT22;7075;53.574;10.054;2023-01-16T08:01:09;5.30;99.90
14000;DHT22;7075;53.574;10.054;2023-01-16T08:03:35;5.30;99.90
14000;DHT22;7075;53.574;10.054;2023-01-16T08:06:01;5.40;99.90
14000;DHT22;7075;53.574;10.054;2023-01-16T08:08:28;5.40;99.90
14000;DHT22;7075;53.574;10.054;2023-01-16T08:10:59;5.40;99.90
14000;DHT22;7075;53.574;10.054;2023-01-16T08:13:26;5.40;99.90
14000;DHT22;7075;53.574;10.054;2023-01-16T08:16:05;5.40;99.90
14000;DHT22;7075;53.574;10.054;2023-01-16T08:18:31;5.40;99.90
14000;DHT22;7075;53.574;10.054;2023-01-16T08:20:56;5.40;99.90
14000;DHT22;7075;53.574;10.054;2023-01-16T08:23:22;5.40;99.90
14000;DHT22;7075;53.574;10.054;2023-01-16T08:25:49;5.40;99.90
14000;DHT22;7075;53.574;10.054;2023-01-16T08:28:15;5.40;99.90
14000;DHT22;7075;53.574;10.054;2023-01-16T08:30:45;5.40;99.90
14000;DHT22;7075;53.574;10.054;2023-01-16T08:33:10;5.30;99.90
14000;DHT22;7075;53.574;10.054;2023-01-16T08:35:36;5.40;99.90
14000;DHT22;7075;53.574;10.054;2023-01-16T08:38:01;5.40;99.90
14000;DHT22;7075;53.574;10.054;2023-01-16T08:40:27;5.40;99.90
14000;DHT22;7075;53.574;10.054;2023-01-16T08:42:54;5.40;99.90
14000;DHT22;7075;53.574;10.054;2023-01-16T08:45:40;5.50;99.90
14000;DHT22;7075;53.574;10.054;2023-01-16T08:48:26;5.50;99.90
14000;DHT22;7075;53.574;10.054;2023-01-16T08:51:20;5.50;99.90
14000;DHT22;7075;53.574;10.054;2023-01-16T08:53:50;5.50;99.90
14000;DHT22;7075;53.574;10.054;2023-01-16T08:56:16;5.50;99.90
14000;DHT22;7075;53.574;10.054;2023-01-16T08:58:42;5.50;99.90
14000;DHT22;7075;53.574;10.054;2023-01-16T09:01:07;5.50;99.90
14000;DHT22;7075;53.574;10.054;2023-01-16T09:03:33;5.50;99.90
14000;DHT22;7075;53.574;10.054;2023-01-16T09:06:00;5.50;99.90
14000;DHT22;7075;53.574;10.054;2023-01-16T09:08:26;5.50;99.90
14000;DHT22;7075;53.574;10.054;2023-01-16T09:10:53;5.50;99.90
14000;DHT22;7075;53.574;10.054;2023-01-16T09:13:37;5.50;99.90
14000;DHT22;7075;53.574;10.054;2023-01-16T09:16:16;5.50;99.90
14000;DHT22;7075;53.574;10.054;2023-01-16T09:18:42;5.50;99.90
14000;DHT22;7075;53.574;10.054;2023-01-16T09:21:08;5.50;99.90
14000;DHT22;7075;53.574;10.054;2023-01-16T09:23:34;5.50;99.90
14000;DHT22;7075;53.574;10.054;2023-01-16T09:26:00;5.50;99.90
14000;DHT22;7075;53.574;10.054;2023-01-16T09:28:25;5.60;99.90
14000;DHT22;7075;53.574;10.054;2023-01-16T09:30:51;5.60;99.90
14000;DHT22;7075;53.574;10.054;2023-01-16T09:33:17;5.60;99.90
14000;DHT22;7075;53.574;10.054;2023-01-16T09:35:42;5.70;99.90
14000;DHT22;7075;53.574;10.054;2023-01-16T09:38:08;5.80;99.90
14000;DHT22;7075;53.574;10.054;2023-01-16T09:40:34;5.90;99.90
14000;DHT22;7075;53.574;10.054;2023-01-16T09:43:32;6.00;99.90
14000;DHT22;7075;53.574;10.054;2023-01-16T09:46:13;6.20;99.90
14000;DHT22;7075;53.574;10.054;2023-01-16T09:51:32;6.00;99.90
14000;DHT22;7075;53.574;10.054;2023-01-16T09:56:53;5.90;99.90
14000;DHT22;7075;53.574;10.054;2023-01-16T10:02:26;5.80;99.90
14000;DHT22;7075;53.574;10.054;2023-01-16T10:04:54;5.80;99.90
14000;DHT22;7075;53.574;10.054;2023-01-16T10:19:29;5.80;99.90
14000;DHT22;7075;53.574;10.054;2023-01-16T10:22:33;5.90;99.90
14000;DHT22;7075;53.574;10.054;2023-01-16T10:25:21;5.90;99.90
14000;DHT22;7075;53.574;10.054;2023-01-16T10:30:52;5.80;99.90
14000;DHT22;7075;53.574;10.054;2023-01-16T10:35:58;5.80;99.90
14000;DHT22;7075;53.574;10.054;2023-01-16T10:38:44;5.90;99.90
14000;DHT22;7075;53.574;10.054;2023-01-16T10:44:23;6.00;99.90
14000;DHT22;7075;53.574;10.054;2023-01-16T10:47:13;5.90;99.90
14000;DHT22;7075;53.574;10.054;2023-01-16T10:49:58;6.00;99.90
14000;DHT22;7075;53.574;10.054;2023-01-16T10:52:23;6.00;99.90
14000;DHT22;7075;53.574;10.054;2023-01-16T10:54:52;6.10;99.90
14000;DHT22;7075;53.574;10.054;2023-01-16T10:57:19;6.20;99.90
14000;DHT22;7075;53.574;10.054;2023-01-16T10:59:47;6.30;99.90
14000;DHT22;7075;53.574;10.054;2023-01-16T11:02:30;6.40;99.90
14000;DHT22;7075;53.574;10.054;2023-01-16T11:04:57;6.40;99.90
14000;DHT22;7075;53.574;10.054;2023-01-16T11:07:28;6.40;99.90
14000;DHT22;7075;53.574;10.054;2023-01-16T11:09:54;6.40;99.90
14000;DHT22;7075;53.574;10.054;2023-01-16T11:12:28;6.50;99.90
14000;DHT22;7075;53.574;10.054;2023-01-16T11:15:16;6.60;99.90
14000;DHT22;7075;53.574;10.054;2023-01-16T11:18:01;6.60;99.90
14000;DHT22;7075;53.574;10.054;2023-01-16T11:20:45;6.60;99.90
14000;DHT22;7075;53.574;10.054;2023-01-16T11:23:26;6.60;99.90
14000;DHT22;7075;53.574;10.054;2023-01-16T11:25:54;6.60;99.90
14000;DHT22;7075;53.574;10.054;2023-01-16T11:28:26;6.60;99.90
14000;DHT22;7075;53.574;10.054;2023-01-16T11:30:56;6.50;99.90
14000;DHT22;7075;53.574;10.054;2023-01-16T11:33:25;6.50;99.90
14000;DHT22;7075;53.574;10.054;2023-01-16T11:38:20;6.70;99.90
14000;DHT22;7075;53.574;10.054;2023-01-16T11:40:47;6.70;99.90
14000;DHT22;7075;53.574;10.054;2023-01-16T11:43:16;6.70;99.90
14000;DHT22;7075;53.574;10.054;2023-01-16T11:46:05;6.70;99.90
14000;DHT22;7075;53.574;10.054;2023-01-16T11:48:42;6.70;99.90
14000;DHT22;7075;53.574;10.054;2023-01-16T11:51:19;6.70;99.90
14000;DHT22;7075;53.574;10.054;2023-01-16T11:53:48;6.70;99.90
14000;DHT22;7075;53.574;10.054;2023-01-16T12:05:07;6.80;99.90
14000;DHT22;7075;53.574;10.054;2023-01-16T12:11:01;6.80;99.90
14000;DHT22;7075;53.574;10.054;2023-01-16T12:13:49;6.80;99.90
14000;DHT22;7075;53.574;10.054;2023-01-16T12:17:02;6.90;99.90
14000;DHT22;7075;53.574;10.054;2023-01-16T12:30:59;7.20;99.90
14000;DHT22;7075;53.574;10.054;2023-01-16T12:37:02;7.50;99.90
14000;DHT22;7075;53.574;10.054;2023-01-16T12:42:34;7.50;99.90
14000;DHT22;7075;53.574;10.054;2023-01-16T12:59:49;7.10;99.90
14000;DHT22;7075;53.574;10.054;2023-01-16T13:05:23;7.20;99.90
14000;DHT22;7075;53.574;10.054;2023-01-16T13:07:52;7.10;99.90
14000;DHT22;7075;53.574;10.054;2023-01-16T13:10:24;7.10;99.90
14000;DHT22;7075;53.574;10.054;2023-01-16T13:13:22;7.10;99.90
14000;DHT22;7075;53.574;10.054;2023-01-16T13:18:53;7.00;99.90
14000;DHT22;7075;53.574;10.054;2023-01-16T13:21:27;6.90;99.90
14000;DHT22;7075;53.574;10.054;2023-01-16T13:26:24;6.90;99.90
14000;DHT22;7075;53.574;10.054;2023-01-16T13:29:09;7.00;99.90
14000;DHT22;7075;53.574;10.054;2023-01-16T13:31:53;7.00;99.90
14000;DHT22;7075;53.574;10.054;2023-01-16T13:34:23;7.00;99.90
14000;DHT22;7075;53.574;10.054;2023-01-16T13:39:51;6.90;99.90
14000;DHT22;7075;53.574;10.054;2023-01-16T13:42:23;6.90;99.90
14000;DHT22;7075;53.574;10.054;2023-01-16T13:44:54;6.90;99.90
14000;DHT22;7075;53.574;10.054;2023-01-16T13:47:40;6.70;99.90
14000;DHT22;7075;53.574;10.054;2023-01-16T13:50:30;6.70;99.90
14000;DHT22;7075;53.574;10.054;2023-01-16T13:53:00;6.70;99.90
14000;DHT22;7075;53.574;10.054;2023-01-16T13:55:31;6.70;99.90
14000;DHT22;7075;53.574;10.054;2023-01-16T13:58:25;6.70;99.90
14000;DHT22;7075;53.574;10.054;2023-01-16T14:01:02;6.70;99.90
14000;DHT22;7075;53.574;10.054;2023-01-16T14:03:31;6.70;99.90
14000;DHT22;7075;53.574;10.054;2023-01-16T14:06:27;6.80;99.90
14000;DHT22;7075;53.574;10.054;2023-01-16T14:11:39;6.70;99.90
14000;DHT22;7075;53.574;10.054;2023-01-16T14:14:25;6.70;99.90
14000;DHT22;7075;53.574;10.054;2023-01-16T14:17:11;6.60;99.90
14000;DHT22;7075;53.574;10.054;2023-01-16T14:22:17;6.70;99.90
14000;DHT22;7075;53.574;10.054;2023-01-16T14:24:45;6.70;99.90
14000;DHT22;7075;53.574;10.054;2023-01-16T14:27:32;6.70;99.90
14000;DHT22;7075;53.574;10.054;2023-01-16T14:30:03;6.60;99.90
14000;DHT22;7075;53.574;10.054;2023-01-16T14:32:33;6.60;99.90
14000;DHT22;7075;53.574;10.054;2023-01-16T14:35:14;6.60;99.90
14000;DHT22;7075;53.574;10.054;2023-01-16T14:37:57;6.60;99.90
14000;DHT22;7075;53.574;10.054;2023-01-16T14:40:26;6.70;99.90
14000;DHT22;7075;53.574;10.054;2023-01-16T14:43:16;6.70;99.90
14000;DHT22;7075;53.574;10.054;2023-01-16T14:49:39;6.70;99.90
14000;DHT22;7075;53.574;10.054;2023-01-16T14:52:47;6.70;99.90
14000;DHT22;7075;53.574;10.054;2023-01-16T14:55:59;6.60;99.90
14000;DHT22;7075;53.574;10.054;2023-01-16T14:58:47;6.60;99.90
14000;DHT22;7075;53.574;10.054;2023-01-16T15:01:31;6.60;99.90
14000;DHT22;7075;53.574;10.054;2023-01-16T15:04:19;6.70;99.90
14000;DHT22;7075;53.574;10.054;2023-01-16T15:06:54;6.60;99.90
14000;DHT22;7075;53.574;10.054;2023-01-16T15:09:21;6.60;99.90
14000;DHT22;7075;53.574;10.054;2023-01-16T15:11:52;6.60;99.90
14000;DHT22;7075;53.574;10.054;2023-01-16T15:14:22;6.60;99.90
14000;DHT22;7075;53.574;10.054;2023-01-16T15:20:16;6.70;99.90
14000;DHT22;7075;53.574;10.054;2023-01-16T15:23:15;6.70;99.90
14000;DHT22;7075;53.574;10.054;2023-01-16T15:33:41;6.60;99.90
14000;DHT22;7075;53.574;10.054;2023-01-16T15:36:24;6.60;99.90
14000;DHT22;7075;53.574;10.054;2023-01-16T15:38:54;6.60;99.90
14000;DHT22;7075;53.574;10.054;2023-01-16T15:41:23;6.60;99.90
14000;DHT22;7075;53.574;10.054;2023-01-16T15:44:13;6.60;99.90
14000;DHT22;7075;53.574;10.054;2023-01-16T15:49:59;6.60;99.90
14000;DHT22;7075;53.574;10.054;2023-01-16T15:52:32;6.60;99.90
14000;DHT22;7075;53.574;10.054;2023-01-16T15:55:20;6.60;99.90
14000;DHT22;7075;53.574;10.054;2023-01-16T15:57:55;6.50;99.90
14000;DHT22;7075;53.574;10.054;2023-01-16T16:03:00;6.50;99.90
14000;DHT22;7075;53.574;10.054;2023-01-16T16:05:28;6.50;99.90
14000;DHT22;7075;53.574;10.054;2023-01-16T16:07:55;6.50;99.90
14000;DHT22;7075;53.574;10.054;2023-01-16T16:10:21;6.50;99.90
14000;DHT22;7075;53.574;10.054;2023-01-16T16:13:14;6.50;99.90
14000;DHT22;7075;53.574;10.054;2023-01-16T16:15:55;6.50;99.90
14000;DHT22;7075;53.574;10.054;2023-01-16T16:18:57;6.40;99.90
14000;DHT22;7075;53.574;10.054;2023-01-16T16:21:37;6.40;99.90
14000;DHT22;7075;53.574;10.054;2023-01-16T16:24:23;6.40;99.90
14000;DHT22;7075;53.574;10.054;2023-01-16T16:26:49;6.50;99.90
14000;DHT22;7075;53.574;10.054;2023-01-16T16:29:19;6.50;99.90
14000;DHT22;7075;53.574;10.054;2023-01-16T16:31:46;6.50;99.90
14000;DHT22;7075;53.574;10.054;2023-01-16T16:34:23;6.50;99.90
14000;DHT22;7075;53.574;10.054;2023-01-16T16:36:55;6.50;99.90
14000;DHT22;7075;53.574;10.054;2023-01-16T16:47:38;6.50;99.90
14000;DHT22;7075;53.574;10.054;2023-01-16T16:52:56;6.40;99.90
14000;DHT22;7075;53.574;10.054;2023-01-16T16:57:58;6.50;99.90
14000;DHT22;7075;53.574;10.054;2023-01-16T17:00:26;6.50;99.90
14000;DHT22;7075;53.574;10.054;2023-01-16T17:03:05;6.50;99.90
14000;DHT22;7075;53.574;10.054;2023-01-16T17:05:32;6.50;99.90
14000;DHT22;7075;53.574;10.054;2023-01-16T17:07:59;6.50;99.90
14000;DHT22;7075;53.574;10.054;2023-01-16T17:10:25;6.50;99.90
14000;DHT22;7075;53.574;10.054;2023-01-16T17:12:51;6.40;99.90
14000;DHT22;7075;53.574;10.054;2023-01-16T17:15:17;6.50;99.90
14000;DHT22;7075;53.574;10.054;2023-01-16T17:17:44;6.40;99.90
14000;DHT22;7075;53.574;10.054;2023-01-16T17:20:28;6.50;99.90
14000;DHT22;7075;53.574;10.054;2023-01-16T17:22:54;6.50;99.90
14000;DHT22;7075;53.574;10.054;2023-01-16T17:25:20;6.50;99.90
14000;DHT22;7075;53.574;10.054;2023-01-16T17:27:55;6.50;99.90
14000;DHT22;7075;53.574;10.054;2023-01-16T17:30:23;6.50;99.90
14000;DHT22;7075;53.574;10.054;2023-01-16T17:35:40;6.40;99.90
14000;DHT22;7075;53.574;10.054;2023-01-16T17:38:11;6.40;99.90
14000;DHT22;7075;53.574;10.054;2023-01-16T17:40:40;6.40;99.90
14000;DHT22;7075;53.574;10.054;2023-01-16T17:43:14;6.40;99.90
14000;DHT22;7075;53.574;10.054;2023-01-16T17:46:00;6.30;99.90
14000;DHT22;7075;53.574;10.054;2023-01-16T17:48:29;6.30;99.90
14000;DHT22;7075;53.574;10.054;2023-01-16T17:50:56;6.30;99.90
14000;DHT22;7075;53.574;10.054;2023-01-16T17:53:26;6.30;99.90
14000;DHT22;7075;53.574;10.054;2023-01-16T17:55:53;6.30;99.90
14000;DHT22;7075;53.574;10.054;2023-01-16T17:58:28;6.40;99.90
14000;DHT22;7075;53.574;10.054;2023-01-16T18:01:00;6.40;99.90
14000;DHT22;7075;53.574;10.054;2023-01-16T18:03:30;6.30;99.90
14000;DHT22;7075;53.574;10.054;2023-01-16T18:06:01;6.30;99.90
14000;DHT22;7075;53.574;10.054;2023-01-16T18:08:29;6.30;99.90
14000;DHT22;7075;53.574;10.054;2023-01-16T18:10:55;6.40;99.90
14000;DHT22;7075;53.574;10.054;2023-01-16T18:13:22;6.40;99.90
14000;DHT22;7075;53.574;10.054;2023-01-16T18:16:09;6.40;99.90
14000;DHT22;7075;53.574;10.054;2023-01-16T18:18:55;6.40;99.90
14000;DHT22;7075;53.574;10.054;2023-01-16T18:21:21;6.30;99.90
14000;DHT22;7075;53.574;10.054;2023-01-16T18:24:05;6.30;99.90
14000;DHT22;7075;53.574;10.054;2023-01-16T18:26:31;6.30;99.90
14000;DHT22;7075;53.574;10.054;2023-01-16T18:28:57;6.30;99.90
14000;DHT22;7075;53.574;10.054;2023-01-16T18:31:22;6.30;99.90
14000;DHT22;7075;53.574;10.054;2023-01-16T18:33:48;6.30;99.90
14000;DHT22;7075;53.574;10.054;2023-01-16T18:36:18;6.40;99.90
14000;DHT22;7075;53.574;10.054;2023-01-16T18:38:44;6.40;99.90
14000;DHT22;7075;53.574;10.054;2023-01-16T18:41:29;6.40;99.90
14000;DHT22;7075;53.574;10.054;2023-01-16T18:44:13;6.30;99.90
14000;DHT22;7075;53.574;10.054;2023-01-16T18:46:57;6.30;99.90
14000;DHT22;7075;53.574;10.054;2023-01-16T18:49:41;6.30;99.90
14000;DHT22;7075;53.574;10.054;2023-01-16T18:52:27;6.20;99.90
14000;DHT22;7075;53.574;10.054;2023-01-16T18:55:13;6.20;99.90
14000;DHT22;7075;53.574;10.054;2023-01-16T18:57:59;6.30;99.90